createdAt,value
2023-02-11T00:00:00.957Z,77.56
2023-02-11T00:00:53.614Z,77.71
2023-02-11T00:01:45.289Z,77.64
2023-02-11T00:02:37.090Z,77.72
2023-02-11T00:03:28.640Z,77.94
2023-02-11T00:04:20.113Z,77.99
2023-02-11T00:05:11.698Z,78.13
2023-02-11T00:06:09.017Z,78.25
2023-02-11T00:07:00.651Z,78.30
2023-02-11T00:07:52.145Z,78.44
2023-02-11T00:08:43.708Z,78.46
2023-02-11T00:09:35.382Z,78.75
2023-02-11T00:10:26.801Z,78.75
2023-02-11T00:11:20.514Z,78.67
2023-02-11T00:12:12.204Z,78.39
2023-02-11T00:13:03.663Z,78.86
2023-02-11T00:13:55.056Z,78.84
2023-02-11T00:14:46.570Z,78.75
2023-02-11T00:15:38.034Z,78.96
2023-02-11T00:16:31.128Z,78.78
2023-02-11T00:17:23.320Z,79.07
2023-02-11T00:18:15.037Z,79.28
2023-02-11T00:19:06.942Z,79.34
2023-02-11T00:19:58.380Z,79.65
2023-02-11T00:20:50.083Z,79.75
2023-02-11T00:21:41.541Z,79.93
2023-02-11T00:22:33.193Z,81.48
2023-02-11T00:23:24.821Z,79.63
2023-02-11T00:24:16.270Z,79.21
2023-02-11T00:25:08.204Z,79.33
2023-02-11T00:25:59.679Z,79.21
2023-02-11T00:26:51.367Z,79.03
2023-02-11T00:27:42.825Z,79.12
2023-02-11T00:28:37.441Z,79.07
2023-02-11T00:29:29.296Z,78.83
2023-02-11T00:30:21.049Z,78.76
2023-02-11T00:31:13.774Z,78.85
2023-02-11T00:32:08.757Z,78.77
2023-02-11T00:33:00.206Z,78.98
2023-02-11T00:33:52.886Z,79.06
2023-02-11T00:34:44.370Z,78.82
2023-02-11T00:35:39.170Z,78.86
2023-02-11T00:36:32.653Z,79.13
2023-02-11T00:37:24.395Z,79.06
2023-02-11T00:38:16.469Z,79.06
2023-02-11T00:39:08.423Z,79.29
2023-02-11T00:40:00.623Z,78.87
2023-02-11T00:40:52.197Z,78.54
2023-02-11T00:41:43.642Z,78.60
2023-02-11T00:42:37.488Z,78.65
2023-02-11T00:43:29.043Z,78.86
2023-02-11T00:44:21.393Z,78.76
2023-02-11T00:45:13.072Z,78.56
2023-02-11T00:46:05.691Z,78.49
2023-02-11T00:46:57.124Z,78.92
2023-02-11T00:47:48.982Z,78.83
2023-02-11T00:48:41.263Z,78.66
2023-02-11T00:49:32.852Z,78.67
2023-02-11T00:50:24.580Z,78.56
2023-02-11T00:51:16.064Z,78.63
2023-02-11T00:52:07.601Z,78.58
2023-02-11T00:52:59.364Z,78.81
2023-02-11T00:53:50.949Z,79.53
2023-02-11T00:54:42.496Z,79.44
2023-02-11T00:55:34.403Z,79.04
2023-02-11T00:56:26.777Z,79.04
2023-02-11T00:57:18.524Z,78.94
2023-02-11T00:58:10.262Z,79.19
2023-02-11T00:59:01.799Z,79.32
2023-02-11T00:59:53.241Z,79.03
2023-02-11T01:00:46.154Z,79.08
2023-02-11T01:01:38.939Z,79.14
2023-02-11T01:02:30.479Z,78.58
2023-02-11T01:03:22.436Z,77.96
2023-02-11T01:04:13.958Z,78.41
2023-02-11T01:05:06.446Z,78.27
2023-02-11T01:05:58.128Z,79.30
2023-02-11T01:06:49.761Z,79.62
2023-02-11T01:07:41.190Z,79.32
2023-02-11T01:08:32.697Z,78.95
2023-02-11T01:09:24.169Z,79.20
2023-02-11T01:10:15.676Z,79.25
2023-02-11T01:11:15.697Z,78.51
2023-02-11T01:12:09.547Z,78.53
2023-02-11T01:13:01.770Z,78.09
2023-02-11T01:13:53.446Z,78.07
2023-02-11T01:14:46.602Z,77.32
2023-02-11T01:15:38.123Z,77.29
2023-02-11T01:16:29.987Z,77.39
2023-02-11T01:17:21.467Z,77.82
2023-02-11T01:18:14.735Z,77.19
2023-02-11T01:19:06.492Z,77.18
2023-02-11T01:19:57.953Z,77.37
2023-02-11T01:20:51.841Z,77.52
2023-02-11T01:21:43.647Z,77.10
2023-02-11T01:22:39.378Z,77.44
2023-02-11T01:23:31.043Z,77.70
2023-02-11T01:24:22.522Z,78.03
2023-02-11T01:25:14.997Z,77.95
2023-02-11T01:26:06.715Z,78.53
2023-02-11T01:26:58.471Z,78.70
2023-02-11T01:27:49.989Z,79.10
2023-02-11T01:28:41.588Z,79.23
2023-02-11T01:29:33.209Z,79.38
2023-02-11T01:30:24.927Z,79.26
2023-02-11T01:31:16.557Z,79.71
2023-02-11T01:32:08.075Z,79.72
2023-02-11T01:32:59.639Z,79.60
2023-02-11T01:33:51.140Z,79.86
2023-02-11T01:34:42.569Z,79.88
2023-02-11T01:35:34.263Z,79.91
2023-02-11T01:36:25.930Z,80.24
2023-02-11T01:37:17.480Z,80.04
2023-02-11T01:38:16.668Z,79.82
2023-02-11T01:39:08.712Z,80.03
2023-02-11T01:40:02.443Z,79.70
2023-02-11T01:41:06.519Z,80.11
2023-02-11T01:41:57.939Z,79.59
2023-02-11T01:42:51.156Z,79.65
2023-02-11T01:43:47.573Z,78.96
2023-02-11T01:44:40.109Z,78.69
2023-02-11T01:45:47.128Z,78.19
2023-02-11T01:46:38.679Z,78.78
2023-02-11T01:47:30.161Z,79.25
2023-02-11T01:48:30.849Z,79.03
2023-02-11T01:49:29.455Z,79.14
2023-02-11T01:50:20.942Z,79.22
2023-02-11T01:51:27.328Z,79.14
2023-02-11T01:52:35.141Z,78.48
2023-02-11T01:53:47.425Z,78.94
2023-02-11T01:55:10.029Z,78.83
2023-02-11T01:56:22.364Z,79.23
2023-02-11T01:57:24.999Z,78.99
2023-02-11T01:58:17.023Z,79.19
2023-02-11T01:59:17.345Z,79.32
2023-02-11T02:00:22.099Z,79.27
2023-02-11T02:01:21.300Z,79.58
2023-02-11T02:02:17.411Z,79.91
2023-02-11T02:03:20.363Z,80.56
2023-02-11T02:04:17.667Z,80.75
2023-02-11T02:05:52.785Z,80.77
2023-02-11T02:06:55.952Z,80.92
2023-02-11T02:07:55.716Z,80.72
2023-02-11T02:09:00.135Z,81.12
2023-02-11T02:10:01.641Z,81.01
2023-02-11T02:10:56.363Z,80.98
2023-02-11T02:11:48.834Z,80.69
2023-02-11T02:12:40.550Z,80.43
2023-02-11T02:13:34.367Z,80.52
2023-02-11T02:14:26.782Z,80.24
2023-02-11T02:15:24.701Z,80.23
2023-02-11T02:16:19.593Z,80.02
2023-02-11T02:17:27.466Z,79.77
2023-02-11T02:18:33.914Z,79.53
2023-02-11T02:19:59.449Z,80.05
2023-02-11T02:21:22.058Z,79.55
2023-02-11T02:22:42.487Z,79.06
2023-02-11T02:24:07.949Z,79.15
2023-02-11T02:25:10.238Z,79.27
2023-02-11T02:26:27.101Z,79.06
2023-02-11T02:27:40.300Z,78.70
2023-02-11T02:29:08.566Z,78.80
2023-02-11T02:30:18.899Z,78.67
2023-02-11T02:31:26.319Z,78.89
2023-02-11T02:32:37.493Z,78.72
2023-02-11T02:33:47.237Z,78.30
2023-02-11T02:34:54.061Z,78.05
2023-02-11T02:36:05.985Z,78.52
2023-02-11T02:37:11.960Z,78.79
2023-02-11T02:38:14.045Z,78.77
2023-02-11T02:39:26.704Z,78.44
2023-02-11T02:40:42.788Z,78.53
2023-02-11T02:41:37.047Z,78.38
2023-02-11T02:42:28.743Z,78.69
2023-02-11T02:43:22.682Z,78.84
2023-02-11T02:44:14.238Z,78.97
2023-02-11T02:45:08.135Z,79.13
2023-02-11T02:46:19.529Z,79.18
2023-02-11T02:47:11.197Z,79.36
2023-02-11T02:48:03.328Z,79.29
2023-02-11T02:48:56.998Z,79.31
2023-02-11T02:49:48.507Z,79.26
2023-02-11T02:50:40.062Z,79.77
2023-02-11T02:51:43.350Z,80.01
2023-02-11T02:52:55.978Z,80.03
2023-02-11T02:54:24.996Z,80.17
2023-02-11T02:55:38.389Z,79.74
2023-02-11T02:56:36.749Z,79.72
2023-02-11T02:57:57.659Z,79.37
2023-02-11T02:59:03.845Z,79.73
2023-02-11T03:00:19.587Z,80.04
2023-02-11T03:01:50.054Z,79.63
2023-02-11T03:03:04.582Z,79.54
2023-02-11T03:04:25.042Z,80.23
2023-02-11T03:05:34.163Z,80.23
2023-02-11T03:06:31.416Z,80.46
2023-02-11T03:07:39.939Z,80.41
2023-02-11T03:08:46.679Z,80.45
2023-02-11T03:09:48.326Z,80.26
2023-02-11T03:10:49.977Z,80.42
2023-02-11T03:11:41.978Z,80.78
2023-02-11T03:12:37.205Z,80.57
2023-02-11T03:13:36.909Z,80.53
2023-02-11T03:14:32.357Z,80.51
2023-02-11T03:15:28.408Z,80.93
2023-02-11T03:16:26.246Z,80.59
2023-02-11T03:17:19.636Z,80.36
2023-02-11T03:18:16.982Z,80.33
2023-02-11T03:19:15.645Z,80.58
2023-02-11T03:20:12.883Z,80.30
2023-02-11T03:21:07.769Z,79.84
2023-02-11T03:21:59.795Z,79.76
2023-02-11T03:23:02.476Z,80.04
2023-02-11T03:23:58.002Z,79.52
2023-02-11T03:24:49.681Z,79.32
2023-02-11T03:25:56.203Z,79.33
2023-02-11T03:26:54.169Z,79.34
2023-02-11T03:28:08.086Z,79.06
2023-02-11T03:29:23.916Z,79.14
2023-02-11T03:30:19.223Z,79.22
2023-02-11T03:31:16.087Z,78.88
2023-02-11T03:32:38.753Z,79.09
2023-02-11T03:33:50.887Z,78.88
2023-02-11T03:35:14.914Z,78.58
2023-02-11T03:36:15.138Z,78.62
2023-02-11T03:37:24.559Z,78.69
2023-02-11T03:38:29.457Z,78.82
2023-02-11T03:39:29.480Z,78.59
2023-02-11T03:40:29.566Z,78.59
2023-02-11T03:41:24.491Z,78.40
2023-02-11T03:42:17.596Z,78.21
2023-02-11T03:43:17.471Z,78.27
2023-02-11T03:44:14.756Z,78.54
2023-02-11T03:45:12.395Z,78.18
2023-02-11T03:46:06.091Z,78.09
2023-02-11T03:46:59.638Z,77.80
2023-02-11T03:48:04.035Z,78.07
2023-02-11T03:49:02.867Z,78.14
2023-02-11T03:49:59.306Z,78.44
2023-02-11T03:50:53.904Z,78.16
2023-02-11T03:51:49.725Z,78.20
2023-02-11T03:52:41.945Z,78.06
2023-02-11T03:53:33.890Z,78.28
2023-02-11T03:54:30.862Z,78.53
2023-02-11T03:55:25.803Z,78.33
2023-02-11T03:56:23.872Z,78.31
2023-02-11T03:57:15.459Z,78.36
2023-02-11T03:58:08.295Z,78.42
2023-02-11T03:59:00.113Z,78.25
2023-02-11T03:59:59.111Z,78.21
2023-02-11T04:00:50.704Z,77.73
2023-02-11T04:01:42.258Z,77.56
2023-02-11T04:02:36.297Z,77.51
2023-02-11T04:03:27.838Z,77.77
2023-02-11T04:04:19.311Z,77.99
2023-02-11T04:05:14.949Z,77.76
2023-02-11T04:06:07.279Z,77.86
2023-02-11T04:06:58.750Z,77.81
2023-02-11T04:07:50.447Z,77.89
2023-02-11T04:08:41.942Z,77.30
2023-02-11T04:09:33.396Z,77.37
2023-02-11T04:10:25.139Z,77.29
2023-02-11T04:11:16.677Z,77.49
2023-02-11T04:12:08.396Z,77.42
2023-02-11T04:12:59.942Z,77.69
2023-02-11T04:13:51.415Z,77.75
2023-02-11T04:14:43.203Z,77.61
2023-02-11T04:15:34.925Z,77.78
2023-02-11T04:16:26.537Z,77.34
2023-02-11T04:17:18.857Z,77.44
2023-02-11T04:18:10.535Z,77.59
2023-02-11T04:19:02.010Z,77.67
2023-02-11T04:19:53.586Z,77.78
2023-02-11T04:20:45.095Z,77.93
2023-02-11T04:21:36.520Z,77.93
2023-02-11T04:22:27.982Z,77.84
2023-02-11T04:23:19.424Z,78.10
2023-02-11T04:24:10.901Z,77.69
2023-02-11T04:25:02.802Z,77.66
2023-02-11T04:25:54.264Z,77.36
2023-02-11T04:26:45.801Z,77.34
2023-02-11T04:27:37.350Z,77.24
2023-02-11T04:28:29.592Z,77.67
2023-02-11T04:29:21.234Z,77.27
2023-02-11T04:30:13.622Z,77.40
2023-02-11T04:31:05.519Z,77.49
2023-02-11T04:31:57.156Z,77.75
2023-02-11T04:32:48.988Z,77.89
2023-02-11T04:33:40.693Z,77.91
2023-02-11T04:34:32.489Z,77.83
2023-02-11T04:35:24.022Z,77.89
2023-02-11T04:36:15.514Z,78.00
2023-02-11T04:37:07.440Z,77.82
2023-02-11T04:37:58.947Z,77.55
2023-02-11T04:38:50.669Z,77.65
2023-02-11T04:39:42.089Z,77.65
2023-02-11T04:40:34.049Z,77.64
2023-02-11T04:41:25.791Z,77.96
2023-02-11T04:42:17.264Z,77.81
2023-02-11T04:43:09.008Z,77.94
2023-02-11T04:44:00.766Z,77.79
2023-02-11T04:44:52.497Z,77.79
2023-02-11T04:45:44.172Z,77.95
2023-02-11T04:46:35.780Z,77.65
2023-02-11T04:47:27.446Z,77.83
2023-02-11T04:48:19.153Z,77.74
2023-02-11T04:49:15.481Z,77.67
2023-02-11T04:50:07.022Z,77.81
2023-02-11T04:50:58.508Z,77.49
2023-02-11T04:51:50.005Z,77.99
2023-02-11T04:52:42.461Z,77.84
2023-02-11T04:53:34.007Z,78.02
2023-02-11T04:54:25.726Z,77.95
2023-02-11T04:55:17.517Z,77.90
2023-02-11T04:56:09.036Z,77.69
2023-02-11T04:57:01.148Z,77.78
2023-02-11T04:57:52.654Z,77.88
2023-02-11T04:58:44.148Z,77.97
2023-02-11T04:59:35.651Z,78.00
2023-02-11T05:00:27.126Z,78.00
2023-02-11T05:01:18.687Z,78.15
2023-02-11T05:02:10.180Z,78.01
2023-02-11T05:03:01.887Z,78.08
2023-02-11T05:03:53.461Z,78.27
2023-02-11T05:04:45.390Z,78.17
2023-02-11T05:05:41.526Z,78.33
2023-02-11T05:06:34.105Z,78.40
2023-02-11T05:07:25.546Z,78.11
2023-02-11T05:08:16.988Z,78.28
2023-02-11T05:09:12.343Z,77.78
2023-02-11T05:10:04.969Z,77.77
2023-02-11T05:10:56.599Z,77.70
2023-02-11T05:11:48.179Z,77.77
2023-02-11T05:12:39.802Z,77.92
2023-02-11T05:13:31.661Z,77.84
2023-02-11T05:14:23.246Z,78.09
2023-02-11T05:15:15.179Z,77.88
2023-02-11T05:16:06.733Z,78.14
2023-02-11T05:16:58.200Z,78.23
2023-02-11T05:17:49.708Z,78.14
2023-02-11T05:18:42.921Z,78.11
2023-02-11T05:19:34.390Z,78.08
2023-02-11T05:20:25.869Z,78.13
2023-02-11T05:21:19.380Z,78.26
2023-02-11T05:22:11.189Z,78.33
2023-02-11T05:23:02.683Z,78.31
2023-02-11T05:23:54.345Z,78.20
2023-02-11T05:24:45.802Z,78.15
2023-02-11T05:25:37.607Z,78.39
2023-02-11T05:26:29.098Z,78.45
2023-02-11T05:27:20.608Z,78.24
2023-02-11T05:28:12.106Z,78.32
2023-02-11T05:29:03.915Z,78.52
2023-02-11T05:29:55.387Z,78.54
2023-02-11T05:30:46.987Z,78.24
2023-02-11T05:31:38.737Z,78.44
2023-02-11T05:32:30.442Z,78.32
2023-02-11T05:33:22.257Z,78.48
2023-02-11T05:34:13.709Z,78.51
2023-02-11T05:35:05.564Z,78.59
2023-02-11T05:36:08.681Z,78.52
2023-02-11T05:37:00.556Z,78.62
2023-02-11T05:37:52.295Z,78.46
2023-02-11T05:38:43.884Z,78.55
2023-02-11T05:39:35.628Z,78.63
2023-02-11T05:40:27.114Z,78.79
2023-02-11T05:41:19.448Z,78.80
2023-02-11T05:42:11.025Z,78.90
2023-02-11T05:43:02.685Z,78.86
2023-02-11T05:43:54.167Z,78.99
2023-02-11T05:44:45.790Z,78.84
2023-02-11T05:45:37.278Z,79.24
2023-02-11T05:46:28.854Z,78.80
2023-02-11T05:47:20.623Z,78.74
2023-02-11T05:48:12.275Z,78.93
2023-02-11T05:49:04.344Z,79.25
2023-02-11T05:49:55.822Z,79.03
2023-02-11T05:50:47.548Z,79.26
2023-02-11T05:51:39.000Z,79.16
2023-02-11T05:52:30.769Z,79.59
2023-02-11T05:53:22.541Z,79.48
2023-02-11T05:54:14.473Z,79.39
2023-02-11T05:55:06.231Z,79.32
2023-02-11T05:55:57.760Z,79.62
2023-02-11T05:56:49.370Z,79.62
2023-02-11T05:57:41.033Z,79.63
2023-02-11T05:58:32.698Z,79.54
2023-02-11T05:59:24.174Z,79.53
2023-02-11T06:00:16.079Z,79.46
2023-02-11T06:01:07.832Z,79.20
2023-02-11T06:01:59.310Z,79.25
2023-02-11T06:02:51.046Z,79.36
2023-02-11T06:03:42.856Z,79.23
2023-02-11T06:04:35.321Z,79.60
2023-02-11T06:05:27.014Z,79.62
2023-02-11T06:06:18.896Z,79.69
2023-02-11T06:07:10.432Z,79.49
2023-02-11T06:08:01.949Z,79.71
2023-02-11T06:08:53.703Z,80.25
2023-02-11T06:09:45.590Z,79.93
2023-02-11T06:10:37.113Z,80.10
2023-02-11T06:11:28.600Z,80.46
2023-02-11T06:12:20.035Z,80.53
2023-02-11T06:13:11.481Z,80.67
2023-02-11T06:14:03.200Z,81.04
2023-02-11T06:14:54.682Z,81.16
2023-02-11T06:15:56.247Z,80.89
2023-02-11T06:16:47.868Z,81.28
2023-02-11T06:17:39.360Z,81.09
2023-02-11T06:18:32.305Z,81.31
2023-02-11T06:19:23.850Z,81.08
2023-02-11T06:20:15.499Z,81.34
2023-02-11T06:21:08.739Z,81.50
2023-02-11T06:22:00.204Z,81.40
2023-02-11T06:22:51.671Z,81.48
2023-02-11T06:23:43.581Z,81.55
2023-02-11T06:24:58.487Z,81.10
2023-02-11T06:25:46.581Z,81.25
2023-02-11T06:26:38.146Z,81.70
2023-02-11T06:27:30.313Z,81.72
2023-02-11T06:28:21.970Z,81.44
2023-02-11T06:29:14.151Z,81.38
2023-02-11T06:30:07.114Z,81.69
2023-02-11T06:31:04.438Z,81.65
2023-02-11T06:31:56.291Z,81.69
2023-02-11T06:32:48.029Z,81.42
2023-02-11T06:33:39.767Z,81.68
2023-02-11T06:34:31.591Z,82.00
2023-02-11T06:35:23.135Z,82.11
2023-02-11T06:36:18.759Z,82.49
2023-02-11T06:37:10.262Z,82.64
2023-02-11T06:38:01.915Z,82.51
2023-02-11T06:38:53.695Z,82.52
2023-02-11T06:39:45.400Z,82.50
2023-02-11T06:40:37.060Z,82.73
2023-02-11T06:41:28.766Z,82.86
2023-02-11T06:42:20.420Z,82.76
2023-02-11T06:43:11.843Z,82.96
2023-02-11T06:44:04.028Z,82.94
2023-02-11T06:44:55.540Z,82.63
2023-02-11T06:45:52.900Z,82.89
2023-02-11T06:46:44.744Z,83.20
2023-02-11T06:47:37.505Z,83.13
2023-02-11T06:48:29.234Z,83.44
2023-02-11T06:49:20.727Z,83.24
2023-02-11T06:50:14.765Z,83.20
2023-02-11T06:51:12.965Z,83.28
2023-02-11T06:52:04.514Z,83.08
2023-02-11T06:52:55.971Z,82.88
2023-02-11T06:53:47.522Z,83.12
2023-02-11T06:54:39.067Z,83.00
2023-02-11T06:55:30.572Z,82.89
2023-02-11T06:56:24.526Z,82.68
2023-02-11T06:57:16.093Z,82.48
2023-02-11T06:58:07.667Z,82.41
2023-02-11T06:58:59.424Z,82.56
2023-02-11T06:59:51.475Z,82.83
2023-02-11T07:00:43.336Z,82.59
2023-02-11T07:01:34.841Z,82.79
2023-02-11T07:02:26.714Z,82.82
2023-02-11T07:03:18.296Z,82.69
2023-02-11T07:04:10.588Z,82.84
2023-02-11T07:05:02.026Z,82.86
2023-02-11T07:05:53.551Z,82.98
2023-02-11T07:06:45.169Z,83.03
2023-02-11T07:07:37.088Z,83.03
2023-02-11T07:08:29.508Z,83.10
2023-02-11T07:09:20.968Z,83.23
2023-02-11T07:10:13.284Z,83.08
2023-02-11T07:11:13.581Z,82.82
2023-02-11T07:12:05.118Z,82.86
2023-02-11T07:12:58.789Z,82.84
2023-02-11T07:13:52.759Z,82.67
2023-02-11T07:14:44.388Z,82.88
2023-02-11T07:15:37.288Z,83.10
2023-02-11T07:16:29.055Z,83.12
2023-02-11T07:17:20.596Z,83.37
2023-02-11T07:18:14.532Z,83.29
2023-02-11T07:19:06.145Z,83.27
2023-02-11T07:19:57.870Z,83.77
2023-02-11T07:20:49.357Z,83.42
2023-02-11T07:21:41.080Z,83.55
2023-02-11T07:22:34.838Z,83.63
2023-02-11T07:23:26.274Z,83.54
2023-02-11T07:24:18.780Z,83.86
2023-02-11T07:25:10.420Z,83.60
2023-02-11T07:26:06.132Z,84.09
2023-02-11T07:26:57.719Z,84.43
2023-02-11T07:27:50.048Z,84.66
2023-02-11T07:28:42.489Z,84.66
2023-02-11T07:29:33.978Z,85.27
2023-02-11T07:30:25.636Z,85.21
2023-02-11T07:31:20.420Z,85.34
2023-02-11T07:32:11.961Z,85.35
2023-02-11T07:33:03.714Z,85.58
2023-02-11T07:33:59.409Z,85.76
2023-02-11T07:34:50.975Z,86.02
2023-02-11T07:35:42.826Z,86.20
2023-02-11T07:36:34.788Z,86.15
2023-02-11T07:37:26.362Z,86.28
2023-02-11T07:38:17.796Z,86.43
2023-02-11T07:39:09.617Z,86.53
2023-02-11T07:40:01.052Z,86.38
2023-02-11T07:40:52.836Z,86.67
2023-02-11T07:41:47.687Z,86.57
2023-02-11T07:42:41.018Z,86.56
2023-02-11T07:43:33.443Z,86.75
2023-02-11T07:44:25.186Z,86.79
2023-02-11T07:45:17.363Z,86.74
2023-02-11T07:46:27.183Z,86.75
2023-02-11T07:47:18.731Z,86.37
2023-02-11T07:48:10.175Z,86.65
2023-02-11T07:49:02.659Z,86.71
2023-02-11T07:49:56.549Z,86.56
2023-02-11T07:50:48.261Z,86.55
2023-02-11T07:51:39.765Z,86.57
2023-02-11T07:52:31.601Z,86.57
2023-02-11T07:53:23.082Z,86.70
2023-02-11T07:54:14.752Z,86.56
2023-02-11T07:55:06.404Z,86.65
2023-02-11T07:55:57.878Z,86.39
2023-02-11T07:56:49.503Z,86.68
2023-02-11T07:57:41.432Z,86.66
2023-02-11T07:58:33.560Z,86.68
2023-02-11T07:59:25.174Z,86.68
2023-02-11T08:00:19.992Z,86.64
2023-02-11T08:01:16.877Z,86.14
2023-02-11T08:02:09.544Z,86.47
2023-02-11T08:03:01.122Z,86.67
2023-02-11T08:03:53.025Z,86.51
2023-02-11T08:04:46.983Z,86.71
2023-02-11T08:05:39.135Z,86.24
2023-02-11T08:06:34.299Z,86.43
2023-02-11T08:07:26.145Z,86.34
2023-02-11T08:08:17.885Z,86.48
2023-02-11T08:09:15.625Z,86.53
2023-02-11T08:10:07.662Z,86.30
2023-02-11T08:11:00.022Z,86.38
2023-02-11T08:11:51.505Z,86.24
2023-02-11T08:12:42.948Z,86.48
2023-02-11T08:13:35.199Z,86.45
2023-02-11T08:14:27.214Z,86.49
2023-02-11T08:15:18.633Z,86.39
2023-02-11T08:16:27.952Z,86.40
2023-02-11T08:17:19.703Z,86.48
2023-02-11T08:18:11.152Z,86.44
2023-02-11T08:19:11.513Z,86.33
2023-02-11T08:20:05.356Z,86.23
2023-02-11T08:20:57.080Z,86.28
2023-02-11T08:21:48.714Z,86.34
2023-02-11T08:22:40.439Z,85.95
2023-02-11T08:23:31.889Z,85.95
2023-02-11T08:24:23.933Z,85.86
2023-02-11T08:25:15.508Z,86.01
2023-02-11T08:26:11.096Z,85.93
2023-02-11T08:27:02.551Z,85.96
2023-02-11T08:27:54.083Z,86.03
2023-02-11T08:28:47.620Z,85.81
2023-02-11T08:29:39.026Z,86.28
2023-02-11T08:30:30.517Z,86.50
2023-02-11T08:31:26.122Z,85.99
2023-02-11T08:32:17.771Z,85.79
2023-02-11T08:33:09.325Z,85.86
2023-02-11T08:34:02.219Z,85.91
2023-02-11T08:34:54.919Z,85.71
2023-02-11T08:35:46.591Z,85.85
2023-02-11T08:36:39.764Z,85.91
2023-02-11T08:37:33.061Z,85.94
2023-02-11T08:38:24.700Z,86.12
2023-02-11T08:39:21.461Z,85.97
2023-02-11T08:40:13.156Z,86.09
2023-02-11T08:41:05.699Z,85.87
2023-02-11T08:41:57.261Z,85.77
2023-02-11T08:42:48.795Z,86.26
2023-02-11T08:43:41.863Z,85.99
2023-02-11T08:44:33.392Z,85.88
2023-02-11T08:45:24.968Z,86.04
2023-02-11T08:46:19.828Z,85.98
2023-02-11T08:47:11.558Z,85.96
2023-02-11T08:48:03.127Z,85.96
2023-02-11T08:48:54.582Z,85.94
2023-02-11T08:49:47.478Z,86.36
2023-02-11T08:50:40.120Z,86.14
2023-02-11T08:51:31.684Z,86.31
2023-02-11T08:52:23.435Z,86.14
2023-02-11T08:53:14.998Z,85.94
2023-02-11T08:54:09.624Z,86.04
2023-02-11T08:55:01.153Z,85.77
2023-02-11T08:55:54.970Z,85.88
2023-02-11T08:56:51.347Z,86.15
2023-02-11T08:57:43.057Z,85.84
2023-02-11T08:58:34.503Z,86.11
2023-02-11T08:59:26.112Z,85.76
2023-02-11T09:00:18.617Z,85.83
2023-02-11T09:01:24.982Z,85.58
2023-02-11T09:02:16.653Z,85.63
2023-02-11T09:03:08.103Z,85.64
2023-02-11T09:03:59.832Z,85.79
2023-02-11T09:04:51.367Z,85.83
2023-02-11T09:05:45.170Z,86.17
2023-02-11T09:06:36.760Z,85.66
2023-02-11T09:07:28.988Z,85.87
2023-02-11T09:08:21.120Z,85.82
2023-02-11T09:09:14.900Z,85.82
2023-02-11T09:10:06.863Z,85.70
2023-02-11T09:10:58.308Z,86.11
2023-02-11T09:11:50.085Z,85.92
2023-02-11T09:12:41.666Z,86.07
2023-02-11T09:13:33.937Z,86.23
2023-02-11T09:14:25.612Z,85.97
2023-02-11T09:15:17.105Z,85.85
2023-02-11T09:16:16.580Z,85.65
2023-02-11T09:17:08.080Z,85.63
2023-02-11T09:17:59.802Z,85.89
2023-02-11T09:18:52.282Z,85.62
2023-02-11T09:19:43.776Z,85.93
2023-02-11T09:20:35.467Z,86.01
2023-02-11T09:21:28.353Z,85.82
2023-02-11T09:22:19.782Z,86.29
2023-02-11T09:23:11.389Z,86.08
2023-02-11T09:24:03.411Z,85.63
2023-02-11T09:24:54.916Z,86.01
2023-02-11T09:25:46.430Z,85.84
2023-02-11T09:26:38.214Z,85.46
2023-02-11T09:27:29.737Z,85.60
2023-02-11T09:28:21.420Z,85.66
2023-02-11T09:29:13.392Z,85.86
2023-02-11T09:30:05.479Z,85.75
2023-02-11T09:30:56.979Z,85.90
2023-02-11T09:31:49.764Z,85.90
2023-02-11T09:32:41.572Z,86.16
2023-02-11T09:33:33.414Z,86.30
2023-02-11T09:34:24.880Z,86.61
2023-02-11T09:35:16.334Z,86.02
2023-02-11T09:36:08.716Z,86.26
2023-02-11T09:37:00.264Z,86.31
2023-02-11T09:37:51.988Z,85.92
2023-02-11T09:38:44.771Z,86.13
2023-02-11T09:39:36.488Z,85.89
2023-02-11T09:40:28.507Z,86.35
2023-02-11T09:41:23.111Z,86.03
2023-02-11T09:42:39.373Z,86.02
2023-02-11T09:43:41.842Z,86.24
2023-02-11T09:44:36.388Z,86.13
2023-02-11T09:45:30.893Z,86.29
2023-02-11T09:46:25.793Z,86.40
2023-02-11T09:47:36.637Z,85.87
2023-02-11T09:48:42.408Z,85.93
2023-02-11T09:49:43.081Z,86.32
2023-02-11T09:50:39.221Z,86.23
2023-02-11T09:51:46.352Z,86.38
2023-02-11T09:52:51.672Z,86.21
2023-02-11T09:53:43.604Z,86.23
2023-02-11T09:54:51.900Z,86.11
2023-02-11T09:55:47.791Z,86.30
2023-02-11T09:56:39.362Z,85.95
2023-02-11T09:57:36.223Z,86.03
2023-02-11T09:58:36.932Z,85.95
2023-02-11T09:59:28.491Z,85.76
2023-02-11T10:00:32.254Z,85.73
2023-02-11T10:01:40.055Z,85.60
2023-02-11T10:02:50.879Z,85.40
2023-02-11T10:04:00.532Z,85.54
2023-02-11T10:05:35.133Z,85.44
2023-02-11T10:06:35.450Z,85.39
2023-02-11T10:08:09.859Z,85.00
2023-02-11T10:09:10.131Z,84.96
2023-02-11T10:10:11.989Z,84.78
2023-02-11T10:11:26.019Z,84.71
2023-02-11T10:12:50.243Z,84.36
2023-02-11T10:14:04.628Z,84.53
2023-02-11T10:15:09.614Z,84.73
2023-02-11T10:16:15.095Z,84.74
2023-02-11T10:17:09.873Z,84.17
2023-02-11T10:18:13.727Z,84.20
2023-02-11T10:19:39.421Z,84.13
2023-02-11T10:20:39.128Z,84.02
2023-02-11T10:21:50.658Z,84.24
2023-02-11T10:22:49.367Z,84.17
2023-02-11T10:23:46.781Z,84.23
2023-02-11T10:24:41.335Z,84.37
2023-02-11T10:25:40.463Z,84.40
2023-02-11T10:26:36.125Z,84.05
2023-02-11T10:27:37.149Z,84.58
2023-02-11T10:28:33.452Z,84.46
2023-02-11T10:29:48.481Z,84.26
2023-02-11T10:31:02.137Z,84.29
2023-02-11T10:32:30.526Z,84.53
2023-02-11T10:33:38.009Z,84.51
2023-02-11T10:37:37.496Z,83.80
2023-02-11T10:38:39.886Z,83.98
2023-02-11T10:39:32.035Z,83.77
2023-02-11T10:40:34.053Z,83.37
2023-02-11T10:41:38.512Z,83.69
2023-02-11T10:43:26.157Z,84.00
2023-02-11T10:44:40.105Z,84.07
2023-02-11T10:45:51.338Z,83.75
2023-02-11T10:46:45.106Z,83.58
2023-02-11T10:48:49.517Z,83.98
2023-02-11T10:49:48.071Z,84.06
2023-02-11T10:50:39.601Z,83.99
2023-02-11T10:51:34.179Z,83.85
2023-02-11T10:52:30.699Z,83.58
2023-02-11T10:53:24.209Z,83.81
2023-02-11T10:54:24.499Z,84.14
2023-02-11T10:55:25.941Z,83.80
2023-02-11T10:56:26.450Z,84.05
2023-02-11T10:57:20.002Z,83.57
2023-02-11T10:58:29.216Z,83.51
2023-02-11T10:59:31.314Z,83.36
2023-02-11T11:00:33.992Z,83.51
2023-02-11T11:01:46.674Z,83.28
2023-02-11T11:02:44.024Z,83.05
2023-02-11T11:03:47.193Z,83.51
2023-02-11T11:04:46.985Z,83.33
2023-02-11T11:07:34.281Z,83.21
2023-02-11T11:08:41.075Z,82.96
2023-02-11T11:09:48.393Z,83.27
2023-02-11T11:10:49.033Z,83.05
2023-02-11T11:11:52.863Z,82.65
2023-02-11T11:12:54.982Z,82.67
2023-02-11T11:13:52.514Z,82.82
2023-02-11T11:15:02.030Z,82.82
2023-02-11T11:18:22.465Z,83.18
2023-02-11T11:22:19.996Z,83.02
2023-02-11T11:23:22.797Z,82.58
2023-02-11T11:24:22.550Z,82.69
2023-02-11T11:25:30.634Z,82.60
2023-02-11T11:26:49.778Z,82.49
2023-02-11T11:27:47.126Z,82.57
2023-02-11T11:30:07.025Z,82.46
2023-02-11T11:31:36.214Z,82.71
2023-02-11T11:32:35.807Z,82.48
2023-02-11T11:33:32.964Z,82.86
2023-02-11T11:34:48.641Z,83.01
2023-02-11T11:35:41.051Z,82.84
2023-02-11T11:36:38.008Z,82.80
2023-02-11T11:37:33.223Z,82.58
2023-02-11T11:38:45.915Z,82.62
2023-02-11T11:40:19.390Z,82.90
2023-02-11T11:41:32.785Z,82.72
2023-02-11T11:42:44.563Z,82.93
2023-02-11T11:43:37.651Z,82.96
2023-02-11T11:44:34.904Z,82.73
2023-02-11T11:45:27.323Z,82.70
2023-02-11T11:46:25.383Z,82.40
2023-02-11T11:47:44.712Z,82.80
2023-02-11T11:48:46.884Z,82.61
2023-02-11T11:49:51.504Z,82.34
2023-02-11T11:50:48.034Z,82.16
2023-02-11T11:51:45.408Z,82.25
2023-02-11T11:53:11.085Z,82.28
2023-02-11T11:54:11.439Z,81.96
2023-02-11T11:55:21.779Z,81.80
2023-02-11T11:56:19.792Z,82.09
2023-02-11T11:57:22.948Z,82.02
2023-02-11T11:59:02.013Z,81.96
2023-02-11T11:59:55.822Z,82.23
2023-02-11T12:00:59.873Z,82.54
2023-02-11T12:02:11.478Z,82.43
2023-02-11T12:03:38.323Z,82.42
2023-02-11T12:04:59.056Z,82.33
2023-02-11T12:06:24.953Z,82.48
2023-02-11T12:07:46.211Z,82.49
2023-02-11T12:08:59.715Z,82.18
2023-02-11T12:10:17.262Z,82.56
2023-02-11T12:11:26.143Z,82.53
2023-02-11T12:12:35.812Z,82.16
2023-02-11T12:13:43.172Z,82.30
2023-02-11T12:15:07.727Z,82.35
2023-02-11T12:16:36.686Z,82.61
2023-02-11T12:17:51.949Z,82.62
2023-02-11T12:18:52.939Z,82.79